Time;durP1;ratioP1;P1;durP2;ratioP2;P2;SDS_P1;SDS_P2;PMS_P1;PMS_P2;Temp;Humidity;BMP_temperature;BMP_pressure;BME280_temperature;BME280_humidity;BME280_pressure;Samples;Min_cycle;Max_cycle;Signal;HPM_P1;HPM_P2
2024/01/26 00:02:01;;;;;;;0.47;0.10;;;;;;;;;;5015012;28;20174;-89
2024/01/26 00:04:27;;;;;;;0.37;0.03;;;12.70;99.90;;;;;;5032573;28;20213;-89
2024/01/26 00:06:53;;;;;;;0.10;0.00;;;12.50;99.90;;;;;;5032187;28;20181;-89
2024/01/26 00:09:20;;;;;;;0.20;0.13;;;;;;;;;;5016562;28;20177;-86
2024/01/26 00:11:46;;;;;;;0.20;0.03;;;;;;;;;;5016092;28;20319;-88
2024/01/26 00:14:12;;;;;;;0.27;0.10;;;;;;;;;;5033808;28;20198;-87
2024/01/26 00:16:38;;;;;;;0.20;0.10;;;11.50;99.90;;;;;;5033743;28;20599;-88
2024/01/26 00:19:05;;;;;;;0.40;0.10;;;12.70;99.90;;;;;;5032531;28;20216;-87
2024/01/26 00:21:31;;;;;;;0.20;0.10;;;12.40;99.90;;;;;;5032911;28;20253;-87
2024/01/26 00:23:57;;;;;;;0.10;0.00;;;12.60;99.90;;;;;;5032005;28;20271;-88
2024/01/26 00:26:22;;;;;;;0.20;0.10;;;12.60;99.90;;;;;;5033311;28;20177;-89
2024/01/26 00:28:49;;;;;;;0.60;0.20;;;;;;;;;;5033244;28;20181;-87
2024/01/26 00:31:18;;;;;;;0.40;0.10;;;12.60;99.90;;;;;;5031508;28;20169;-86
2024/01/26 00:33:45;;;;;;;0.67;0.10;;;12.80;99.90;;;;;;5032656;28;20220;-89
2024/01/26 00:36:12;;;;;;;0.50;0.10;;;12.70;99.90;;;;;;5032989;28;20173;-88
2024/01/26 00:38:41;;;;;;;0.10;0.00;;;12.80;99.90;;;;;;5032980;28;20173;-89
2024/01/26 00:41:07;;;;;;;0.37;0.10;;;12.70;99.90;;;;;;5032990;28;20170;-89
2024/01/26 00:43:33;;;;;;;0.40;0.10;;;12.80;99.90;;;;;;5035081;28;20232;-91
2024/01/26 00:45:59;;;;;;;0.50;0.10;;;12.80;99.90;;;;;;5034873;28;20170;-89
2024/01/26 00:48:25;;;;;;;0.43;0.10;;;;;;;;;;5034036;28;20177;-90
2024/01/26 00:50:54;;;;;;;0.40;0.10;;;12.80;99.90;;;;;;5034250;28;20174;-91
2024/01/26 00:53:20;;;;;;;0.23;0.00;;;12.80;99.90;;;;;;5032659;28;20256;-87
2024/01/26 00:55:47;;;;;;;0.30;0.00;;;;;;;;;;5035375;28;20197;-90
2024/01/26 00:58:12;;;;;;;0.20;0.00;;;12.90;99.90;;;;;;5035570;28;20621;-90
2024/01/26 01:00:38;;;;;;;0.20;0.10;;;12.90;99.90;;;;;;5019449;28;20201;-86
2024/01/26 01:03:04;;;;;;;0.00;0.00;;;;;;;;;;5056527;28;20270;-92
2024/01/26 01:05:31;;;;;;;0.37;0.00;;;;;;;;;;5054318;28;20172;-89
2024/01/26 01:07:57;;;;;;;0.30;0.10;;;;;;;;;;5039781;28;20189;-90
2024/01/26 01:10:23;;;;;;;0.30;0.10;;;12.50;99.90;;;;;;5038921;28;20162;-93
2024/01/26 01:12:49;;;;;;;0.20;0.10;;;;;;;;;;5038547;28;20201;-87
2024/01/26 01:15:17;;;;;;;0.33;0.10;;;12.40;99.90;;;;;;5045558;28;20174;-89
2024/01/26 01:17:44;;;;;;;0.70;0.30;;;12.50;99.90;;;;;;5048421;28;20176;-89
2024/01/26 01:20:11;;;;;;;1.60;0.30;;;12.40;99.90;;;;;;5044224;28;20200;-86
2024/01/26 01:22:38;;;;;;;1.10;0.30;;;12.30;99.90;;;;;;5046757;28;20212;-90
2024/01/26 01:25:08;;;;;;;1.10;0.50;;;12.20;99.90;;;;;;5054361;28;20181;-89
2024/01/26 01:27:36;;;;;;;1.93;0.60;;;12.10;99.90;;;;;;5079036;28;20225;-87
2024/01/26 01:30:03;;;;;;;2.20;0.70;;;12.10;99.90;;;;;;5063507;28;20176;-91
2024/01/26 01:32:29;;;;;;;1.57;0.70;;;12.00;99.90;;;;;;5080659;28;20221;-90
2024/01/26 01:34:55;;;;;;;2.53;1.00;;;;;;;;;;5062146;28;20224;-88
2024/01/26 01:37:21;;;;;;;2.80;1.07;;;12.00;99.90;;;;;;5074873;28;20182;-85
2024/01/26 01:39:47;;;;;;;2.33;1.10;;;11.90;99.90;;;;;;5075036;28;20165;-84
2024/01/26 01:42:16;;;;;;;3.80;1.60;;;;;;;;;;5077682;28;20157;-85
2024/01/26 01:44:42;;;;;;;3.07;1.37;;;11.30;99.90;;;;;;5078947;28;20170;-88
2024/01/26 01:47:12;;;;;;;4.40;1.70;;;11.90;99.90;;;;;;5046704;28;20176;-89
2024/01/26 01:49:39;;;;;;;6.50;2.10;;;12.00;99.90;;;;;;5055147;28;20212;-88
2024/01/26 01:52:18;;;;;;;5.17;1.70;;;12.00;99.90;;;;;;5077613;28;20239;-88
2024/01/26 01:54:44;;;;;;;5.87;1.80;;;12.10;99.90;;;;;;5079201;28;20192;-88
2024/01/26 01:57:14;;;;;;;4.27;1.50;;;12.00;99.90;;;;;;5067323;28;20190;-86
2024/01/26 01:59:43;;;;;;;5.10;1.80;;;12.10;99.90;;;;;;5078135;28;20179;-83
2024/01/26 02:02:10;;;;;;;3.97;1.47;;;;;;;;;;5068930;28;20260;-82
2024/01/26 02:04:36;;;;;;;4.77;1.70;;;;;;;;;;5057150;28;20189;-86
2024/01/26 02:07:04;;;;;;;5.47;1.80;;;11.80;99.90;;;;;;5057204;28;20177;-85
2024/01/26 02:09:30;;;;;;;4.23;1.37;;;;;;;;;;5044077;28;20204;-87
2024/01/26 02:11:56;;;;;;;4.77;1.50;;;11.40;99.90;;;;;;5057919;28;20232;-86
2024/01/26 02:14:22;;;;;;;6.10;1.53;;;11.50;99.90;;;;;;5057353;28;20162;-83
2024/01/26 02:16:58;;;;;;;3.40;1.30;;;11.00;99.90;;;;;;5054327;28;20185;-84
2024/01/26 02:19:25;;;;;;;2.77;0.90;;;11.60;99.90;;;;;;5050744;28;20162;-85
2024/01/26 02:21:51;;;;;;;3.07;0.93;;;11.60;99.90;;;;;;5050662;28;20182;-83
2024/01/26 02:24:16;;;;;;;2.00;0.80;;;11.40;99.90;;;;;;5057479;28;20185;-86
2024/01/26 02:26:42;;;;;;;3.33;1.03;;;11.40;99.90;;;;;;5056839;28;20178;-85
2024/01/26 02:29:08;;;;;;;2.23;0.87;;;11.30;99.90;;;;;;5027788;28;20579;-86
2024/01/26 02:31:34;;;;;;;2.23;0.80;;;;;;;;;;5033713;28;20206;-86
2024/01/26 02:34:00;;;;;;;1.70;0.80;;;11.40;99.90;;;;;;5034824;28;20201;-87
2024/01/26 02:36:31;;;;;;;2.73;0.80;;;11.40;99.90;;;;;;5035055;28;20621;-83
2024/01/26 02:38:56;;;;;;;2.33;0.90;;;11.20;99.90;;;;;;5035465;28;20182;-87
2024/01/26 02:41:22;;;;;;;2.00;0.70;;;11.20;99.90;;;;;;5035518;28;20178;-87
2024/01/26 02:43:48;;;;;;;1.83;0.43;;;11.40;99.90;;;;;;5034153;28;20184;-85
2024/01/26 02:46:14;;;;;;;1.40;0.70;;;11.70;99.90;;;;;;5034768;28;20166;-87
2024/01/26 02:48:39;;;;;;;1.53;0.47;;;11.90;99.90;;;;;;5034854;28;20229;-85
2024/01/26 02:51:05;;;;;;;1.97;0.63;;;11.90;99.90;;;;;;5032826;28;20660;-87
2024/01/26 02:53:31;;;;;;;2.57;1.00;;;11.80;99.90;;;;;;5017780;28;20321;-88
2024/01/26 02:55:57;;;;;;;2.00;0.60;;;11.70;99.90;;;;;;5034489;28;20256;-86
2024/01/26 02:58:23;;;;;;;2.07;0.60;;;12.00;99.90;;;;;;5035855;28;20220;-86
2024/01/26 03:00:49;;;;;;;2.93;1.00;;;11.50;99.90;;;;;;5034795;28;20174;-86
2024/01/26 03:03:14;;;;;;;1.50;0.60;;;11.40;99.90;;;;;;5005220;28;20253;-83
2024/01/26 03:05:41;;;;;;;2.17;0.60;;;;;;;;;;4995087;28;20182;-85
2024/01/26 03:08:07;;;;;;;3.10;0.73;;;11.40;99.90;;;;;;4994489;28;20232;-81
2024/01/26 03:10:33;;;;;;;3.80;1.03;;;11.20;99.90;;;;;;4994715;28;20180;-82
2024/01/26 03:12:59;;;;;;;5.63;1.50;;;11.10;99.90;;;;;;4994924;28;20345;-87
2024/01/26 03:15:25;;;;;;;3.77;1.37;;;;;;;;;;4997883;28;20187;-87
2024/01/26 03:17:51;;;;;;;5.33;1.60;;;;;;;;;;5007837;28;20653;-87
2024/01/26 03:20:17;;;;;;;4.63;1.37;;;10.60;99.90;;;;;;5011789;28;20187;-87
2024/01/26 03:22:43;;;;;;;4.57;1.50;;;;;;;;;;4994166;28;20199;-87
2024/01/26 03:25:09;;;;;;;6.07;1.80;;;;;;;;;;4994563;28;20175;-85
2024/01/26 03:27:35;;;;;;;10.10;2.37;;;10.40;99.90;;;;;;4992307;28;20635;-88
2024/01/26 03:30:02;;;;;;;6.37;1.77;;;;;;;;;;4994056;28;20234;-85
2024/01/26 03:32:28;;;;;;;8.00;2.17;;;;;;;;;;4994159;28;20218;-88
2024/01/26 03:34:53;;;;;;;4.13;1.20;;;10.20;99.90;;;;;;5013648;28;20170;-87
2024/01/26 03:37:19;;;;;;;5.50;1.73;;;;;;;;;;5012767;28;20193;-86
2024/01/26 03:39:45;;;;;;;5.93;1.57;;;10.20;99.90;;;;;;5012476;28;20179;-85
2024/01/26 03:42:11;;;;;;;8.20;2.57;;;10.20;99.90;;;;;;5012484;28;20180;-86
2024/01/26 03:44:38;;;;;;;6.53;2.13;;;10.10;99.90;;;;;;5013430;28;20200;-86
2024/01/26 03:47:06;;;;;;;10.80;2.77;;;10.00;99.90;;;;;;5013485;28;20186;-86
2024/01/26 03:49:32;;;;;;;9.60;2.50;;;;;;;;;;5013519;28;20209;-87
2024/01/26 03:51:57;;;;;;;10.27;2.17;;;10.30;99.90;;;;;;5013641;28;20252;-87
2024/01/26 03:54:23;;;;;;;8.37;2.50;;;9.90;99.90;;;;;;5014263;28;20159;-86
2024/01/26 03:56:49;;;;;;;8.60;2.43;;;;;;;;;;5029189;28;20181;-87
2024/01/26 03:59:15;;;;;;;7.90;2.53;;;10.00;99.90;;;;;;5013572;28;20163;-89
2024/01/26 04:01:43;;;;;;;11.07;3.03;;;9.60;99.90;;;;;;5013105;28;20178;-87
2024/01/26 04:04:09;;;;;;;10.80;2.87;;;;;;;;;;5012785;28;20286;-88
2024/01/26 04:06:40;;;;;;;9.63;2.50;;;9.90;99.90;;;;;;5014424;28;20177;-89
2024/01/26 04:09:06;;;;;;;8.00;2.50;;;;;;;;;;5022219;28;20193;-89
2024/01/26 04:11:32;;;;;;;10.50;2.90;;;9.60;99.90;;;;;;5029457;28;20206;-89
2024/01/26 04:13:58;;;;;;;8.13;2.90;;;;;;;;;;5029176;28;20270;-88
2024/01/26 04:16:23;;;;;;;11.17;3.20;;;9.90;99.90;;;;;;5028084;28;20234;-87
2024/01/26 04:18:49;;;;;;;10.27;2.87;;;;;;;;;;5034050;28;20179;-88
2024/01/26 04:21:15;;;;;;;15.60;3.53;;;9.60;99.90;;;;;;5033020;28;20182;-89
2024/01/26 04:23:41;;;;;;;9.43;2.27;;;;;;;;;;5012049;28;20183;-88
2024/01/26 04:26:06;;;;;;;8.00;2.50;;;9.70;99.90;;;;;;4993892;28;20705;-91
2024/01/26 04:28:32;;;;;;;7.63;2.50;;;10.00;99.90;;;;;;4994300;28;20163;-87
2024/01/26 04:30:58;;;;;;;5.87;2.30;;;9.40;99.90;;;;;;4993991;28;20183;-88
2024/01/26 04:33:24;;;;;;;10.03;3.00;;;;;;;;;;4993927;28;20686;-90
2024/01/26 04:35:50;;;;;;;6.17;2.80;;;9.20;99.90;;;;;;4992626;28;20643;-90
2024/01/26 04:38:16;;;;;;;11.40;3.60;;;;;;;;;;4993415;28;20175;-90
2024/01/26 04:40:42;;;;;;;7.70;2.50;;;;;;;;;;4993349;28;20179;-91
2024/01/26 04:43:08;;;;;;;7.13;1.97;;;9.30;99.90;;;;;;4992608;28;20182;-90
2024/01/26 04:45:34;;;;;;;5.73;1.73;;;;;;;;;;4992816;28;20211;-89
2024/01/26 04:48:01;;;;;;;5.10;2.00;;;;;;;;;;4994003;28;20628;-91
2024/01/26 04:50:27;;;;;;;4.70;1.50;;;;;;;;;;4993649;28;20642;-91
2024/01/26 04:52:53;;;;;;;5.90;1.90;;;;;;;;;;4992411;28;20226;-91
2024/01/26 04:55:26;;;;;;;8.37;1.70;;;12.60;99.90;;;;;;4994180;28;20194;-91
2024/01/26 04:57:52;;;;;;;5.90;1.63;;;8.80;99.90;;;;;;4998551;28;20183;-91
2024/01/26 05:00:18;;;;;;;7.70;1.63;;;8.70;99.90;;;;;;4997388;28;20178;-90
2024/01/26 05:02:43;;;;;;;6.23;1.30;;;9.00;99.90;;;;;;5007136;28;20209;-92
2024/01/26 05:05:11;;;;;;;10.50;1.57;;;8.70;99.90;;;;;;5034553;28;20201;-89
2024/01/26 05:07:38;;;;;;;7.00;1.37;;;8.70;99.90;;;;;;5033236;28;20235;-91
2024/01/26 05:10:05;;;;;;;7.17;1.70;;;8.60;99.90;;;;;;5033299;28;20170;-90
2024/01/26 05:12:31;;;;;;;7.77;1.47;;;;;;;;;;5033541;28;20201;-91
2024/01/26 05:14:57;;;;;;;6.03;1.40;;;;;;;;;;5033703;28;20232;-92
2024/01/26 05:17:23;;;;;;;4.57;1.37;;;8.70;99.90;;;;;;5033157;28;20245;-90
2024/01/26 05:19:49;;;;;;;9.50;1.53;;;8.40;99.90;;;;;;5032967;28;20177;-91
2024/01/26 05:22:15;;;;;;;7.23;1.43;;;;;;;;;;5033036;28;20178;-92
2024/01/26 05:24:41;;;;;;;6.77;1.40;;;;;;;;;;5032336;28;20170;-91
2024/01/26 05:27:07;;;;;;;8.40;1.53;;;;;;;;;;5032373;28;20276;-91
2024/01/26 05:29:33;;;;;;;5.57;1.40;;;;;;;;;;5033647;28;20213;-93
2024/01/26 05:31:59;;;;;;;6.13;1.20;;;;;;;;;;5050170;28;20209;-92
2024/01/26 05:34:25;;;;;;;5.33;1.10;;;;;;;;;;5037089;28;20231;-93
2024/01/26 05:36:51;;;;;;;8.90;1.20;;;8.00;99.90;;;;;;5050558;28;20181;-93
2024/01/26 05:39:17;;;;;;;9.10;1.60;;;;;;;;;;5053557;28;20185;-93
2024/01/26 05:41:44;;;;;;;4.60;1.30;;;;;;;;;;5035137;28;20199;-93
2024/01/26 05:44:10;;;;;;;4.37;1.30;;;7.90;99.90;;;;;;5052508;28;20165;-94
2024/01/26 05:46:35;;;;;;;7.83;1.27;;;8.00;99.90;;;;;;5052317;28;20169;-93
2024/01/26 05:49:01;;;;;;;7.80;1.30;;;;;;;;;;5034886;28;20254;-93
2024/01/26 05:51:27;;;;;;;3.87;1.00;;;7.80;99.90;;;;;;5032534;28;20167;-92
2024/01/26 05:53:53;;;;;;;10.87;1.30;;;;;;;;;;5032900;28;20249;-93
2024/01/26 05:56:19;;;;;;;6.77;1.30;;;7.70;99.90;;;;;;5031916;28;20657;-93
2024/01/26 05:58:46;;;;;;;6.63;1.43;;;;;;;;;;5031443;28;20174;-93
2024/01/26 06:01:12;;;;;;;6.67;1.30;;;;;;;;;;5031285;28;20170;-94
2024/01/26 06:03:38;;;;;;;11.87;1.60;;;7.80;99.90;;;;;;5032705;28;20719;-93
2024/01/26 06:06:04;;;;;;;5.13;1.47;;;;;;;;;;5036029;28;20178;-93
2024/01/26 06:08:29;;;;;;;7.73;1.27;;;7.60;99.90;;;;;;5036626;28;20196;-92
2024/01/26 06:10:56;;;;;;;7.67;1.10;;;;;;;;;;5036429;28;20181;-92
2024/01/26 06:13:23;;;;;;;7.43;1.13;;;9.20;99.90;;;;;;5035843;28;20221;-92
2024/01/26 06:15:50;;;;;;;11.83;1.37;;;7.40;99.90;;;;;;5036740;28;20192;-92
2024/01/26 06:18:16;;;;;;;7.20;1.30;;;7.70;99.90;;;;;;5036115;28;20224;-92
2024/01/26 06:20:42;;;;;;;5.40;1.00;;;;;;;;;;5035060;28;20173;-92
2024/01/26 06:23:08;;;;;;;7.23;1.67;;;7.50;99.90;;;;;;5035753;28;20656;-92
2024/01/26 06:25:34;;;;;;;5.90;0.90;;;;;;;;;;5035473;28;20166;-92
2024/01/26 06:28:00;;;;;;;7.03;1.17;;;7.20;99.90;;;;;;5035957;28;20208;-92
2024/01/26 06:30:26;;;;;;;12.47;1.23;;;;;;;;;;5034595;28;20186;-91
2024/01/26 06:32:52;;;;;;;5.80;1.17;;;7.30;99.90;;;;;;5035793;28;20234;-92
2024/01/26 06:35:18;;;;;;;10.17;1.53;;;7.40;99.90;;;;;;5037268;28;20194;-94
2024/01/26 06:37:44;;;;;;;9.60;1.30;;;7.60;99.90;;;;;;5040513;28;20655;-92
2024/01/26 06:40:10;;;;;;;6.37;1.07;;;7.40;99.90;;;;;;5018188;28;20182;-92
2024/01/26 06:42:40;;;;;;;6.23;1.63;;;7.30;99.90;;;;;;5035035;28;20652;-92
2024/01/26 06:45:09;;;;;;;10.90;1.50;;;7.30;99.90;;;;;;5019039;28;20181;-93
2024/01/26 06:47:35;;;;;;;14.63;1.80;;;;;;;;;;5036584;28;20185;-92
2024/01/26 06:50:01;;;;;;;12.67;2.20;;;;;;;;;;5035878;28;20241;-92
2024/01/26 06:52:27;;;;;;;11.10;1.60;;;7.20;99.90;;;;;;5036168;28;20301;-93
2024/01/26 06:54:53;;;;;;;10.23;1.50;;;7.10;99.90;;;;;;5035009;28;20206;-93
2024/01/26 06:57:19;;;;;;;7.83;1.23;;;;;;;;;;5035335;28;20264;-92
2024/01/26 06:59:45;;;;;;;7.53;1.30;;;;;;;;;;5034593;28;20174;-92
2024/01/26 07:02:12;;;;;;;7.33;1.23;;;6.80;99.90;;;;;;5034994;28;20174;-93
2024/01/26 07:04:37;;;;;;;9.00;1.30;;;6.80;99.90;;;;;;5034429;28;20271;-92
2024/01/26 07:07:03;;;;;;;5.33;1.40;;;7.00;99.90;;;;;;5016736;28;20186;-92
2024/01/26 07:09:29;;;;;;;9.97;1.40;;;;;;;;;;5035011;28;20245;-92
2024/01/26 07:11:55;;;;;;;8.60;1.67;;;6.70;99.90;;;;;;5034523;28;20689;-93
2024/01/26 07:14:20;;;;;;;6.37;1.30;;;6.70;99.90;;;;;;5034588;28;20219;-94
2024/01/26 07:16:46;;;;;;;11.17;1.47;;;7.00;99.90;;;;;;5033386;28;20609;-92
2024/01/26 07:19:12;;;;;;;11.83;1.40;;;6.90;99.90;;;;;;5034650;28;20178;-93
2024/01/26 07:21:38;;;;;;;9.90;1.43;;;;;;;;;;5035005;28;20269;-92
2024/01/26 07:24:04;;;;;;;15.03;1.80;;;;;;;;;;5034437;28;20166;-92
2024/01/26 07:26:30;;;;;;;6.90;1.43;;;;;;;;;;5034271;28;20186;-92
2024/01/26 07:28:57;;;;;;;6.00;1.20;;;;;;;;;;5034770;28;20641;-91
2024/01/26 07:31:23;;;;;;;6.80;1.63;;;6.80;99.90;;;;;;5034392;28;20192;-92
2024/01/26 07:33:49;;;;;;;6.97;1.40;;;;;;;;;;5034252;28;20178;-92
2024/01/26 07:36:16;;;;;;;8.17;1.23;;;;;;;;;;5032995;28;20173;-92
2024/01/26 07:38:42;;;;;;;7.50;1.40;;;6.60;99.90;;;;;;5032967;28;20170;-92
2024/01/26 07:41:08;;;;;;;8.63;1.20;;;;;;;;;;5034536;28;20236;-93
2024/01/26 07:43:34;;;;;;;8.47;1.50;;;;;;;;;;5037208;28;20184;-91
2024/01/26 07:46:00;;;;;;;8.60;1.17;;;;;;;;;;5053830;28;20617;-93
2024/01/26 07:48:26;;;;;;;15.40;1.77;;;;;;;;;;5036097;28;20193;-92
2024/01/26 07:50:52;;;;;;;9.97;1.47;;;;;;;;;;5053784;28;20174;-93
2024/01/26 07:53:18;;;;;;;11.50;1.60;;;;;;;;;;5053502;28;20209;-92
2024/01/26 07:55:44;;;;;;;13.97;1.30;;;6.40;99.90;;;;;;5035884;28;20352;-92
2024/01/26 07:58:10;;;;;;;9.00;1.97;;;;;;;;;;5036360;28;20188;-91
2024/01/26 08:00:36;;;;;;;12.37;2.00;;;6.40;99.90;;;;;;5053495;28;20173;-93
2024/01/26 08:03:02;;;;;;;8.40;1.57;;;;;;;;;;5055670;28;20221;-92
2024/01/26 08:05:28;;;;;;;11.23;1.30;;;6.70;99.90;;;;;;5054600;28;20208;-92
2024/01/26 08:07:55;;;;;;;8.43;1.33;;;6.50;99.90;;;;;;5053524;28;20200;-92
2024/01/26 08:10:21;;;;;;;7.90;1.13;;;;;;;;;;5037371;28;20181;-91
2024/01/26 08:12:47;;;;;;;11.83;1.30;;;;;;;;;;5057325;28;20675;-92
2024/01/26 08:15:13;;;;;;;9.97;1.37;;;;;;;;;;5053176;28;20173;-91
2024/01/26 08:17:39;;;;;;;12.00;1.77;;;;;;;;;;5053986;28;20173;-93
2024/01/26 08:20:05;;;;;;;13.43;1.90;;;;;;;;;;5036041;28;20173;-93
2024/01/26 08:22:32;;;;;;;10.70;1.60;;;;;;;;;;5036830;28;20715;-93
2024/01/26 08:25:00;;;;;;;10.23;1.60;;;6.80;99.90;;;;;;5036389;28;20177;-91
2024/01/26 08:27:27;;;;;;;8.70;1.40;;;6.80;99.90;;;;;;5053133;28;20197;-93
2024/01/26 08:29:53;;;;;;;19.63;2.30;;;7.30;99.90;;;;;;5035774;28;20177;-93
2024/01/26 08:32:19;;;;;;;13.43;1.70;;;;;;;;;;5035964;28;20209;-91
2024/01/26 08:34:45;;;;;;;10.67;1.77;;;;;;;;;;5053316;28;20247;-92
2024/01/26 08:37:11;;;;;;;11.17;1.53;;;8.00;99.90;;;;;;5053207;28;20174;-91
2024/01/26 08:39:37;;;;;;;8.33;1.47;;;8.00;99.90;;;;;;5052820;28;20185;-92
2024/01/26 08:42:04;;;;;;;13.23;2.00;;;8.20;99.90;;;;;;5053414;28;20169;-88
2024/01/26 08:44:30;;;;;;;11.93;1.87;;;8.40;99.90;;;;;;5053067;28;20666;-90
2024/01/26 08:46:56;;;;;;;13.20;1.83;;;8.40;99.90;;;;;;5053526;28;20276;-88
2024/01/26 08:49:22;;;;;;;17.77;2.00;;;;;;;;;;5054660;28;20674;-89
2024/01/26 08:51:48;;;;;;;17.20;1.93;;;8.20;99.90;;;;;;5051045;28;20209;-89
2024/01/26 08:54:14;;;;;;;9.37;1.50;;;8.90;99.90;;;;;;5035763;28;20180;-90
2024/01/26 08:56:43;;;;;;;13.27;1.80;;;8.80;99.90;;;;;;5053212;28;20226;-91
2024/01/26 08:59:11;;;;;;;7.70;1.93;;;8.50;99.90;;;;;;5053452;28;20209;-90
2024/01/26 09:01:38;;;;;;;15.83;2.30;;;;;;;;;;5053315;28;20181;-89
2024/01/26 09:04:05;;;;;;;14.37;2.30;;;9.50;99.90;;;;;;5052967;28;20260;-87
2024/01/26 09:06:34;;;;;;;16.30;2.50;;;10.20;99.90;;;;;;5053316;28;20184;-88
2024/01/26 09:09:01;;;;;;;10.30;1.70;;;10.80;99.90;;;;;;5053751;28;20180;-88
2024/01/26 09:11:27;;;;;;;13.50;1.87;;;11.30;99.90;;;;;;5053233;28;20174;-88
2024/01/26 09:13:52;;;;;;;8.03;2.00;;;12.10;99.90;;;;;;5053354;28;20549;-88
2024/01/26 09:16:18;;;;;;;12.10;2.00;;;12.20;99.90;;;;;;5053769;28;20177;-89
2024/01/26 09:18:44;;;;;;;9.57;2.08;;;;;;;;;;5037072;28;20177;-89
2024/01/26 09:21:13;;;;;;;12.88;2.30;;;12.80;99.90;;;;;;5053098;28;20205;-88
2024/01/26 09:23:39;;;;;;;12.15;1.77;;;;;;;;;;5068807;28;20173;-86
2024/01/26 09:26:05;;;;;;;11.60;1.75;;;;;;;;;;5068465;28;20196;-84
2024/01/26 09:28:31;;;;;;;17.15;2.78;;;13.40;99.90;;;;;;5042483;28;20177;-87
2024/01/26 09:30:57;;;;;;;16.75;2.25;;;12.70;99.90;;;;;;5053084;28;20169;-87
2024/01/26 09:33:22;;;;;;;15.45;1.92;;;12.20;99.90;;;;;;5055829;28;20258;-87
2024/01/26 09:35:48;;;;;;;12.65;2.15;;;11.40;99.90;;;;;;5052707;28;20193;-87
2024/01/26 09:38:15;;;;;;;10.77;2.28;;;10.50;99.90;;;;;;5035618;28;20652;-87
2024/01/26 09:40:43;;;;;;;12.57;2.22;;;10.10;99.90;;;;;;5038534;28;20197;-87
2024/01/26 09:43:09;;;;;;;13.38;2.03;;;10.20;99.90;;;;;;5056650;28;20640;-87
2024/01/26 09:45:35;;;;;;;20.90;2.63;;;;;;;;;;5056846;28;20173;-87
2024/01/26 09:48:06;;;;;;;12.43;1.80;;;11.10;99.90;;;;;;5041675;28;20215;-86
2024/01/26 09:50:32;;;;;;;18.63;2.20;;;11.70;99.90;;;;;;5054684;28;20153;-91
2024/01/26 09:52:58;;;;;;;15.83;1.83;;;11.90;99.90;;;;;;5079426;28;20227;-89
2024/01/26 09:55:25;;;;;;;10.20;2.13;;;11.30;99.90;;;;;;5062409;28;20173;-88
2024/01/26 09:57:53;;;;;;;14.63;2.40;;;10.70;99.90;;;;;;5069711;28;20261;-87
2024/01/26 10:00:19;;;;;;;19.53;2.27;;;11.10;99.90;;;;;;5041828;28;20174;-87
2024/01/26 10:02:45;;;;;;;10.53;1.97;;;10.80;99.90;;;;;;5061417;28;20242;-88
2024/01/26 10:05:14;;;;;;;8.77;2.00;;;10.40;99.90;;;;;;5061097;28;20273;-87
2024/01/26 10:07:40;;;;;;;12.30;2.13;;;;;;;;;;5037257;28;20192;-89
2024/01/26 10:10:07;;;;;;;10.30;2.10;;;10.60;52.60;;;;;;5037971;28;20181;-88
2024/01/26 10:12:35;;;;;;;11.60;2.13;;;10.20;64.80;;;;;;5054975;28;20220;-88
2024/01/26 10:15:11;;;;;;;17.50;1.93;;;10.00;1.00;;;;;;5052562;28;20174;-89
2024/01/26 10:17:38;;;;;;;11.73;2.00;;;9.90;1.00;;;;;;5038717;28;20180;-91
2024/01/26 10:20:15;;;;;;;16.43;2.20;;;10.10;30.90;;;;;;5036612;28;20699;-88
2024/01/26 10:22:42;;;;;;;15.53;2.67;;;9.90;1.00;;;;;;5037967;28;20189;-90
2024/01/26 10:25:09;;;;;;;15.43;2.30;;;10.10;1.00;;;;;;5035229;28;20188;-90
2024/01/26 10:27:35;;;;;;;17.53;2.27;;;;;;;;;;5036012;28;20621;-88
2024/01/26 10:30:01;;;;;;;18.50;2.60;;;10.00;1.00;;;;;;5035958;28;20236;-91
2024/01/26 10:32:29;;;;;;;17.60;2.20;;;9.90;1.00;;;;;;5036748;28;20239;-92
2024/01/26 10:34:59;;;;;;;10.23;2.10;;;10.20;1.00;;;;;;5036840;28;20196;-89
2024/01/26 10:37:32;;;;;;;10.27;2.07;;;11.10;1.00;;;;;;5018237;28;20182;-91
2024/01/26 10:39:59;;;;;;;17.63;2.00;;;10.60;1.00;;;;;;5035788;28;20174;-89
2024/01/26 10:42:26;;;;;;;18.73;2.37;;;10.80;1.00;;;;;;5036218;28;20224;-91
2024/01/26 10:44:54;;;;;;;10.37;1.97;;;10.70;99.90;;;;;;5036293;28;20161;-91
2024/01/26 10:47:22;;;;;;;13.30;2.00;;;11.40;99.90;;;;;;5036471;28;20174;-90
2024/01/26 10:49:49;;;;;;;14.43;2.53;;;11.40;99.90;;;;;;5035751;28;20655;-92
2024/01/26 10:52:19;;;;;;;13.23;2.07;;;11.10;99.90;;;;;;5036654;28;20217;-90
2024/01/26 10:54:47;;;;;;;11.63;2.33;;;11.00;21.50;;;;;;5018862;28;20672;-90
2024/01/26 10:57:13;;;;;;;13.07;1.80;;;10.90;1.00;;;;;;5036269;28;20663;-91
2024/01/26 10:59:45;;;;;;;16.27;2.20;;;;;;;;;;5035867;28;20174;-90
2024/01/26 11:02:34;;;;;;;12.53;2.07;;;11.70;1.00;;;;;;5036274;28;20174;-87
2024/01/26 11:05:02;;;;;;;19.27;2.47;;;12.00;1.00;;;;;;5019928;28;20178;-90
2024/01/26 11:07:31;;;;;;;15.87;1.90;;;12.30;1.00;;;;;;5056009;28;20165;-92
2024/01/26 11:10:04;;;;;;;17.90;2.53;;;14.00;99.00;;;;;;5056335;28;20203;-91
2024/01/26 11:12:33;;;;;;;15.20;2.10;;;16.90;99.90;;;;;;5055339;28;20209;-89
2024/01/26 11:15:16;;;;;;;10.67;1.97;;;14.20;99.90;;;;;;5038404;28;20177;-89
2024/01/26 11:17:53;;;;;;;12.50;2.35;;;12.90;1.00;;;;;;5056262;28;20188;-91
2024/01/26 11:20:28;;;;;;;7.10;1.83;;;13.10;99.90;;;;;;5038326;28;20180;-91
2024/01/26 11:23:07;;;;;;;18.20;2.37;;;13.60;99.90;;;;;;5059896;28;20183;-89
2024/01/26 11:25:40;;;;;;;15.07;2.40;;;14.60;1.00;;;;;;5062305;28;20253;-88
2024/01/26 11:28:07;;;;;;;12.27;2.23;;;14.50;1.00;;;;;;5061290;28;20697;-89
2024/01/26 11:30:34;;;;;;;16.63;2.53;;;14.60;99.90;;;;;;5055468;28;20662;-88
2024/01/26 11:33:00;;;;;;;13.13;2.47;;;14.20;99.90;;;;;;5054595;28;20715;-88
2024/01/26 11:35:26;;;;;;;14.63;2.72;;;15.80;99.90;;;;;;5054323;28;20165;-87
2024/01/26 11:37:54;;;;;;;18.92;2.50;;;17.00;99.90;;;;;;5053817;28;20218;-87
2024/01/26 11:40:20;;;;;;;13.25;2.50;;;16.20;99.90;;;;;;5053239;28;20286;-87
2024/01/26 11:42:49;;;;;;;12.38;2.47;;;14.40;99.90;;;;;;5054948;28;20620;-86
2024/01/26 11:45:30;;;;;;;10.20;2.25;;;15.30;99.90;;;;;;5063965;28;20177;-86
2024/01/26 11:47:56;;;;;;;18.30;2.50;;;;;;;;;;5063994;28;20189;-87
2024/01/26 11:50:22;;;;;;;22.40;2.83;;;18.10;99.90;;;;;;5058899;28;20166;-87
2024/01/26 11:52:48;;;;;;;15.48;2.70;;;19.50;99.90;;;;;;5058167;28;20232;-87
2024/01/26 11:55:15;;;;;;;10.48;2.50;;;;;;;;;;5060288;28;20636;-87
2024/01/26 11:57:40;;;;;;;11.25;2.70;;;20.90;1.00;;;;;;5059764;28;20188;-85
2024/01/26 12:00:09;;;;;;;14.25;2.10;;;21.30;99.90;;;;;;5057338;28;20170;-87
2024/01/26 12:02:35;;;;;;;11.60;2.30;;;21.20;99.90;;;;;;5063826;28;20227;-86
2024/01/26 12:05:01;;;;;;;11.82;2.72;;;20.70;99.90;;;;;;5067195;28;20175;-87
2024/01/26 12:07:27;;;;;;;11.60;2.45;;;21.30;99.90;;;;;;5060731;28;20264;-86
2024/01/26 12:09:53;;;;;;;12.57;2.90;;;22.40;99.90;;;;;;5058627;28;20169;-87
2024/01/26 12:12:19;;;;;;;12.00;3.22;;;22.60;99.90;;;;;;5027374;28;20201;-87
2024/01/26 12:14:45;;;;;;;15.88;3.00;;;21.30;99.90;;;;;;5045341;28;20173;-86
2024/01/26 12:17:10;;;;;;;15.95;2.90;;;21.10;99.90;;;;;;5056906;28;20204;-86
2024/01/26 12:19:38;;;;;;;17.58;2.67;;;21.10;99.90;;;;;;5042033;28;20204;-87
2024/01/26 12:22:07;;;;;;;12.77;2.92;;;21.10;99.90;;;;;;5024958;28;20201;-86
2024/01/26 12:24:36;;;;;;;11.23;2.83;;;21.20;99.90;;;;;;5042790;28;20170;-86
2024/01/26 12:27:03;;;;;;;18.75;3.35;;;22.20;99.90;;;;;;5038554;28;20177;-86
2024/01/26 12:29:29;;;;;;;13.43;2.67;;;22.30;99.90;;;;;;5041025;28;20612;-88
2024/01/26 12:32:04;;;;;;;9.65;2.45;;;20.60;99.90;;;;;;5053166;28;20204;-86
2024/01/26 12:34:30;;;;;;;15.63;2.60;;;20.80;99.90;;;;;;5035647;28;20199;-88
2024/01/26 12:37:08;;;;;;;18.90;3.08;;;20.90;99.90;;;;;;5052353;28;20177;-86
2024/01/26 12:39:34;;;;;;;21.13;3.00;;;21.20;99.90;;;;;;5052731;28;20176;-87
2024/01/26 12:41:59;;;;;;;17.48;3.15;;;22.60;99.90;;;;;;5053330;28;20165;-87
2024/01/26 12:44:29;;;;;;;15.65;2.65;;;22.50;99.90;;;;;;5052807;28;20215;-91
2024/01/26 12:46:55;;;;;;;10.88;2.45;;;22.00;99.90;;;;;;5053449;28;20192;-88
2024/01/26 12:49:22;;;;;;;11.70;2.90;;;23.40;99.90;;;;;;5034822;28;20220;-88
2024/01/26 12:51:47;;;;;;;13.82;2.78;;;23.40;99.90;;;;;;5053340;28;20201;-88
2024/01/26 12:54:13;;;;;;;14.18;2.22;;;23.10;99.90;;;;;;5052293;28;20189;-89
2024/01/26 12:56:39;;;;;;;14.90;2.60;;;22.10;99.90;;;;;;5051849;28;20169;-87
2024/01/26 12:59:04;;;;;;;9.77;2.92;;;22.20;99.90;;;;;;5035437;28;20246;-86
2024/01/26 13:01:30;;;;;;;12.02;2.47;;;22.90;99.90;;;;;;5052455;28;20226;-89
2024/01/26 13:03:56;;;;;;;12.55;2.55;;;24.10;99.90;;;;;;5051952;28;20291;-86
2024/01/26 13:06:22;;;;;;;21.92;3.13;;;22.90;99.90;;;;;;5053150;28;20180;-82
2024/01/26 13:08:49;;;;;;;14.43;2.72;;;;;;;;;;5035450;28;20208;-82
2024/01/26 13:11:14;;;;;;;15.02;2.88;;;23.40;99.90;;;;;;5051205;28;20169;-81
2024/01/26 13:13:43;;;;;;;14.63;2.25;;;22.10;99.90;;;;;;5034671;28;20659;-83
2024/01/26 13:16:09;;;;;;;12.43;2.53;;;;;;;;;;5054970;28;20248;-82